Search for airport 
image banner adimage banner ad
image banner ad

SVXJ - De Jose

Located in Barcelona, Venezuela

ICAO - , IATA -

Data provided by Airmate  

General information

Coordinates: N10°4'21" W64°51'50"
Elevation is feet MSL.
 
Rated:
View ratings: [VIEW]


View others Airports in Anzoategui

Operational data

Open for public use
Current time UTC:
Current local time:
TAF: TAF SVBC 192200Z 1918/2018 27007KT 9999 BNK016 TX32/17Z TN22/05Z BECMG 1918/1922 09005KT 9999 SCT020
View NOTAMs / SUP AIP / TFR affecting this airport [VIEW]
Communications frequencies: [VIEW]

Runways:

Airport contact information

Address: Barcelona Venezuela

Satellite view of SVXJ